Clinton, IN (47842)

02:57 EST le 19 décembre 2014 (GMT -0500)
South Vermillion High School | Change Station
CLOSE
Current Station
Stations météorologiques personnelles
Location: Clinton, IN
Altitude: 518 ft
Stations météo à proximité

Alt. 518 ft 39.69 °N, 87.41 °W | Updated 8 minutes ago

Couvert
Couvert
27.1 ° F
Paraît 27 ° F
N
0.0
Vent Variable Vent de Sud
Gusts 3.0 mph

Aujourd'hui
Haut(e) -- | Bas -- ° F
--% Risque de précip.
Hier
Haut(e) -- | Bas -- ° F
Precip. -- pouce
8:05 AM 5:27 PM
Lune descendante, 9% visible
Pression 30.29 pouce
Visibilité 10.0 Miles terrestres
Nuages Couvert 1700 ft
Refroidissement éolien 27 ° F
Point de rosée 24 ° F
Humidité 86%
Précipitations 0.00 pouce
Profondeur de la couche neigeuse Non disponible.
UV 0 sur 12
Pollen .10 sur 12
Qualité de l'air Non disponible.
Flu Activity Non disponible.
METAR KPRG 190735Z AUTO 00000KT 10SM OVC017 M03/M04 A3029 RMK AO2 T10271045

More Conditions Fewer Conditions

Pression 30.29 pouce
Visibilité 10.0 Miles terrestres
Nuages Couvert 1700 ft
Refroidissement éolien 27 ° F
Point de rosée 24 ° F
Humidité 86%
Précipitations 0.00 pouce
Profondeur de la couche neigeuse Non disponible.
UV 0 sur 12
Pollen .10 sur 12
Qualité de l'air Non disponible.
Flu Activity Non disponible.
METAR KPRG 190735Z AUTO 00000KT 10SM OVC017 M03/M04 A3029 RMK AO2 T10271045

More Conditions Fewer Conditions

10-Day Weather Forecast

Almanac

Astronomie

Dec. 19, 2014 Lever Coucher
Temps réel
Crépuscule civil
Crépuscule nautique
Crépuscule astronomique
Lune
Durée de lumière visible
Longueur du jour
Tomorrow will be .
, % of the Moon is Illuminated

Extrêmes aujourd'hui

State Highs State Lows

Community

WunderPhotos

Upload Photos

1,778,953 Photos téléchargées !

WunderBlogs® & News

Nearby

Qualité de l'air

  Qualité de l'air Indice de la qualité de l'air Polluant
Not available.

Épaisseur de neige

Station Depth Altitude

Activité sismique

Ville Distance Mag. Time & Date
Minimum magnitude displayed is 2.5.

Températures des eaux côtières

Lieu Température

Stations météo à proximité